Vyacheslav Tikhonov — UBSH6 — position and weather

sailwx.info

Track history (hours):
 
Tides and Currents Weather Stations Pressure Air Temp Water Temp Dewpoint Dewpoint Depression Visibility Wind Speed Wind Dir Waves Ship Positions

Vyacheslav Tikhonov

Last reported at 2014-Jul-14 02:09 UTC. Time now 2014-Aug-02 02:49 UTC.
Position N 54°45' E 004°14'.
Warning: this ship's position is 19 days out of date.

Length 84 m; draft 6.8 m.

Type: Cargo ship. MMSI: 273350140.

Date/timePositionNaut miles runAvg speedWind from/ knotsBaromVisibWave heightAir tempDewpointWater temp
2014-Jul-14 02:09N 54°45' E 004°14'20114.8
2014-Jul-13 12:33N 51°35' E 002°23'1716.5
2014-Jul-13 11:33N 51°21' E 002°09'1616.1
2014-Jul-13 10:32N 51°09' E 001°52'1515.4
2014-Jul-13 09:33N 50°59' E 001°34'3514.0
2014-Jul-13 07:05N 50°31' E 001°01'1114.5
2014-Jul-13 06:19N 50°27' E 000°45'1414.5
2014-Jul-13 05:23N 50°23' E 000°24'6713.3
2014-Jul-13 00:21N 50°05' W 001°16'  
2014-Jul-10 16:33N 38°41' W 009°50'1414.1
2014-Jul-10 15:33N 38°27' W 009°46'1413.9
2014-Jul-10 14:33N 38°13' W 009°42'1414.2
2014-Jul-10 13:32N 37°59' W 009°38'1414.0
2014-Jul-10 12:33N 37°46' W 009°34'1414.1
2014-Jul-10 11:33N 37°32' W 009°30'1414.1
2014-Jul-10 10:32N 37°18' W 009°26'1414.4
2014-Jul-10 09:33N 37°04' W 009°22'1514.4
2014-Jul-10 08:33N 36°51' W 009°15'2914.5
2014-Jul-10 06:33N 36°37' W 008°43'312 8.8
2014-Jul-08 19:05N 36°15' W 002°16'914.8
2014-Jul-08 18:28N 36°16' W 002°05'52314.8
2014-Jul-07 07:10N 37°37' E 008°41'1115.6
2014-Jul-07 06:30N 37°37' E 008°55'1415.2
2014-Jul-07 05:33N 37°37' E 009°13'5814.5
2014-Jul-07 01:32N 37°38' E 010°26'1515.0
2014-Jul-07 00:32N 37°34' E 010°45'1515.0
2014-Jul-06 23:33N 37°30' E 011°03'1815.4
2014-Jul-06 22:24N 37°22' E 011°23'5815.2
2014-Jul-06 18:33N 36°56' E 012°28'1614.8
2014-Jul-06 17:27N 36°45' E 012°44'1314.8
2014-Jul-06 16:33N 36°36' E 012°56'1514.8
2014-Jul-06 15:34N 36°26' E 013°09'1514.8
2014-Jul-06 14:32N 36°16' E 013°22'1514.8
2014-Jul-06 13:32N 36°05' E 013°36'1414.8
2014-Jul-06 12:33N 35°55' E 013°49'1515.2
2014-Jul-06 11:33N 35°45' E 014°02'1615.6
2014-Jul-06 10:33N 35°34' E 014°17'1515.2
2014-Jul-06 09:33N 35°30' E 014°34'1615.5
2014-Jul-06 08:33N 35°26' E 014°53'1615.6
2014-Jul-06 07:33N 35°23' E 015°12'1815.7
2014-Jul-06 06:25N 35°20' E 015°33'1315.7
2014-Jul-06 05:33N 35°18' E 015°50'70314.5
2014-Jul-04 05:09N 32°29' E 029°31'914.6
2014-Jul-04 04:33N 32°27' E 029°41'1514.6
2014-Jul-04 03:33N 32°23' E 029°58'1714.7
2014-Jul-04 02:25N 32°19' E 030°17'  
Track history (hours):
 
Tides and Currents Weather Stations Pressure Air Temp Water Temp Dewpoint Dewpoint Depression Visibility Wind Speed Wind Dir Waves Ship Positions

Vyacheslav Tikhonov

Last reported at 2014-Jul-14 02:09 UTC. Time now 2014-Aug-02 02:49 UTC.
Position N 54°45' E 004°14'.
Warning: this ship's position is 19 days out of date.

Length 84 m; draft 6.8 m.

Type: Cargo ship. MMSI: 273350140.

Date/timePositionNaut miles runAvg speedWind from/ knotsBaromVisibWave heightAir tempDewpointWater temp
2014-Jul-14 02:09N 54°45' E 004°14'20114.8
2014-Jul-13 12:33N 51°35' E 002°23'1716.5
2014-Jul-13 11:33N 51°21' E 002°09'1616.1
2014-Jul-13 10:32N 51°09' E 001°52'1515.4
2014-Jul-13 09:33N 50°59' E 001°34'3514.0
2014-Jul-13 07:05N 50°31' E 001°01'1114.5
2014-Jul-13 06:19N 50°27' E 000°45'1414.5
2014-Jul-13 05:23N 50°23' E 000°24'6713.3
2014-Jul-13 00:21N 50°05' W 001°16'  
2014-Jul-10 16:33N 38°41' W 009°50'1414.1
2014-Jul-10 15:33N 38°27' W 009°46'1413.9
2014-Jul-10 14:33N 38°13' W 009°42'1414.2
2014-Jul-10 13:32N 37°59' W 009°38'1414.0
2014-Jul-10 12:33N 37°46' W 009°34'1414.1
2014-Jul-10 11:33N 37°32' W 009°30'1414.1
2014-Jul-10 10:32N 37°18' W 009°26'1414.4
2014-Jul-10 09:33N 37°04' W 009°22'1514.4
2014-Jul-10 08:33N 36°51' W 009°15'2914.5
2014-Jul-10 06:33N 36°37' W 008°43'312 8.8
2014-Jul-08 19:05N 36°15' W 002°16'914.8
2014-Jul-08 18:28N 36°16' W 002°05'52314.8
2014-Jul-07 07:10N 37°37' E 008°41'1115.6
2014-Jul-07 06:30N 37°37' E 008°55'1415.2
2014-Jul-07 05:33N 37°37' E 009°13'5814.5
2014-Jul-07 01:32N 37°38' E 010°26'1515.0
2014-Jul-07 00:32N 37°34' E 010°45'1515.0
2014-Jul-06 23:33N 37°30' E 011°03'1815.4
2014-Jul-06 22:24N 37°22' E 011°23'5815.2
2014-Jul-06 18:33N 36°56' E 012°28'1614.8
2014-Jul-06 17:27N 36°45' E 012°44'1314.8
2014-Jul-06 16:33N 36°36' E 012°56'1514.8
2014-Jul-06 15:34N 36°26' E 013°09'1514.8
2014-Jul-06 14:32N 36°16' E 013°22'1514.8
2014-Jul-06 13:32N 36°05' E 013°36'1414.8
2014-Jul-06 12:33N 35°55' E 013°49'1515.2
2014-Jul-06 11:33N 35°45' E 014°02'1615.6
2014-Jul-06 10:33N 35°34' E 014°17'1515.2
2014-Jul-06 09:33N 35°30' E 014°34'1615.5
2014-Jul-06 08:33N 35°26' E 014°53'1615.6
2014-Jul-06 07:33N 35°23' E 015°12'1815.7
2014-Jul-06 06:25N 35°20' E 015°33'1315.7
2014-Jul-06 05:33N 35°18' E 015°50'70314.5
2014-Jul-04 05:09N 32°29' E 029°31'914.6
2014-Jul-04 04:33N 32°27' E 029°41'1514.6
2014-Jul-04 03:33N 32°23' E 029°58'1714.7
2014-Jul-04 02:25N 32°19' E 030°17'  

Dump ship's entire track history